createdAt,value
2017-04-10T00:00:57.257Z,12.94
2017-04-10T00:05:54.892Z,12.87
2017-04-10T00:10:50.959Z,12.97
2017-04-10T00:15:47.336Z,12.91
2017-04-10T00:20:43.949Z,13.00
2017-04-10T00:25:40.234Z,12.94
2017-04-10T00:30:36.567Z,12.79
2017-04-10T00:35:33.772Z,12.72
2017-04-10T00:40:30.117Z,12.72
2017-04-10T00:45:26.658Z,12.67
2017-04-10T00:50:23.130Z,12.64
2017-04-10T00:55:20.667Z,12.80
2017-04-10T01:00:16.491Z,12.70
2017-04-10T01:05:13.089Z,12.78
2017-04-10T01:10:09.843Z,12.78
2017-04-10T01:15:06.444Z,12.79
2017-04-10T01:20:02.939Z,12.87
2017-04-10T01:24:59.365Z,12.79
2017-04-10T01:29:56.504Z,12.79
2017-04-10T01:34:53.193Z,12.78
2017-04-10T01:39:50.065Z,12.83
2017-04-10T01:44:47.010Z,12.78
2017-04-10T01:49:43.595Z,12.73
2017-04-10T01:54:40.157Z,12.57
2017-04-10T01:59:36.341Z,12.60
2017-04-10T02:04:32.983Z,12.45
2017-04-10T02:09:29.472Z,12.42
2017-04-10T02:14:25.909Z,12.27
2017-04-10T02:19:22.259Z,12.31
2017-04-10T02:24:18.895Z,12.35
2017-04-10T02:29:15.142Z,12.20
2017-04-10T02:34:11.832Z,12.24
2017-04-10T02:39:08.311Z,12.40
2017-04-10T02:44:04.839Z,12.35
2017-04-10T02:49:01.048Z,12.31
2017-04-10T02:53:57.489Z,12.25
2017-04-10T02:58:53.681Z,12.25
2017-04-10T03:03:50.429Z,12.28
2017-04-10T03:08:46.590Z,12.31
2017-04-10T03:13:42.836Z,12.27
2017-04-10T03:18:39.487Z,12.28
2017-04-10T03:23:35.992Z,12.32
2017-04-10T03:28:32.834Z,12.31
2017-04-10T03:33:29.678Z,12.17
2017-04-10T03:38:26.226Z,12.25
2017-04-10T03:43:22.657Z,12.17
2017-04-10T03:48:19.321Z,12.31
2017-04-10T03:53:15.950Z,12.31
2017-04-10T03:58:12.488Z,12.25
2017-04-10T04:03:09.044Z,12.18
2017-04-10T04:08:05.513Z,12.13
2017-04-10T04:13:02.127Z,12.15
2017-04-10T04:17:58.647Z,12.07
2017-04-10T04:22:55.706Z,12.04
2017-04-10T04:27:52.278Z,11.91
2017-04-10T04:32:48.746Z,12.02
2017-04-10T04:37:45.535Z,12.00
2017-04-10T04:47:42.161Z,12.00
2017-04-10T04:52:39.058Z,12.07
2017-04-10T04:57:35.386Z,12.09
2017-04-10T05:02:32.165Z,12.25
2017-04-10T05:07:29.523Z,12.31
2017-04-10T05:12:25.761Z,12.40
2017-04-10T05:17:22.267Z,12.43
2017-04-10T05:22:20.072Z,12.49
2017-04-10T05:27:16.472Z,12.42
2017-04-10T05:32:13.181Z,12.42
2017-04-10T05:37:09.760Z,12.50
2017-04-10T05:42:05.941Z,12.46
2017-04-10T05:47:02.571Z,12.49
2017-04-10T05:51:59.115Z,12.49
2017-04-10T05:56:55.598Z,12.31
2017-04-10T06:01:52.250Z,12.36
2017-04-10T06:06:49.022Z,12.28
2017-04-10T06:11:45.507Z,12.42
2017-04-10T06:16:44.114Z,12.45
2017-04-10T06:21:40.637Z,12.45
2017-04-10T06:26:36.827Z,12.43
2017-04-10T06:31:34.153Z,12.35
2017-04-10T06:36:31.242Z,12.39
2017-04-10T06:41:29.138Z,12.37
2017-04-10T06:46:25.453Z,12.46
2017-04-10T06:51:21.939Z,12.42
2017-04-10T06:56:18.716Z,12.46
2017-04-10T07:01:15.272Z,12.62
2017-04-10T07:06:12.159Z,12.58
2017-04-10T07:11:08.754Z,12.54
2017-04-10T07:16:05.275Z,12.64
2017-04-10T07:21:01.823Z,12.50
2017-04-10T07:25:59.002Z,12.68
2017-04-10T07:30:56.038Z,12.72
2017-04-10T07:35:52.323Z,12.62
2017-04-10T07:40:48.759Z,12.62
2017-04-10T07:45:45.092Z,12.67
2017-04-10T07:50:41.595Z,12.82
2017-04-10T07:55:38.618Z,12.58
2017-04-10T08:00:35.628Z,12.91
2017-04-10T08:05:33.404Z,13.08
2017-04-10T08:10:30.368Z,13.12
2017-04-10T08:15:27.212Z,13.20
2017-04-10T08:20:24.206Z,13.59
2017-04-10T08:25:20.819Z,13.54
2017-04-10T08:30:17.289Z,13.46
2017-04-10T08:35:13.783Z,13.28
2017-04-10T08:40:09.954Z,13.30
2017-04-10T08:45:06.190Z,12.94
2017-04-10T08:50:04.954Z,12.70
2017-04-10T08:55:00.598Z,12.68
2017-04-10T08:59:57.159Z,12.72
2017-04-10T09:04:54.800Z,12.73
2017-04-10T09:09:51.488Z,12.72
2017-04-10T09:14:47.973Z,12.90
2017-04-10T09:19:44.716Z,12.72
2017-04-10T09:24:44.326Z,12.61
2017-04-10T09:29:40.685Z,12.47
2017-04-10T09:34:37.041Z,12.42
2017-04-10T09:39:33.891Z,12.40
2017-04-10T09:44:29.921Z,12.32
2017-04-10T09:49:26.980Z,12.43
2017-04-10T09:54:23.846Z,12.54
2017-04-10T09:59:21.165Z,12.62
2017-04-10T10:04:17.846Z,12.83
2017-04-10T10:09:14.203Z,12.72
2017-04-10T10:14:10.834Z,12.85
2017-04-10T10:19:07.842Z,13.00
2017-04-10T10:24:04.299Z,13.00
2017-04-10T10:29:00.526Z,12.79
2017-04-10T10:33:57.479Z,12.90
2017-04-10T10:38:54.446Z,12.94
2017-04-10T10:43:52.510Z,13.18
2017-04-10T10:48:49.166Z,13.05
2017-04-10T10:53:45.536Z,13.01
2017-04-10T10:58:41.842Z,12.91
2017-04-10T11:03:39.022Z,12.87
2017-04-10T11:08:35.685Z,12.75
2017-04-10T11:13:33.182Z,12.75
2017-04-10T11:18:29.046Z,12.68
2017-04-10T11:23:25.479Z,12.58
2017-04-10T11:28:22.342Z,12.75
2017-04-10T11:33:19.240Z,13.04
2017-04-10T11:38:17.636Z,13.42
2017-04-10T11:43:13.914Z,13.33
2017-04-10T11:48:10.524Z,13.56
2017-04-10T11:53:09.711Z,13.86
2017-04-10T11:58:07.883Z,14.12
2017-04-10T12:03:04.853Z,14.85
2017-04-10T12:08:01.625Z,14.78
2017-04-10T12:12:57.277Z,14.43
2017-04-10T12:17:53.284Z,14.18
2017-04-10T12:22:49.354Z,14.04
2017-04-10T12:27:45.425Z,13.92
2017-04-10T12:32:41.662Z,13.86
2017-04-10T12:37:38.090Z,13.86
2017-04-10T12:42:35.260Z,14.07
2017-04-10T12:47:35.114Z,14.68
2017-04-10T12:52:32.361Z,14.97
2017-04-10T12:57:29.107Z,14.99
2017-04-10T13:02:27.401Z,14.99
2017-04-10T13:07:23.385Z,14.97
2017-04-10T13:12:18.652Z,14.72
2017-04-10T13:17:14.537Z,14.53
2017-04-10T13:22:11.405Z,14.41
2017-04-10T13:27:08.463Z,14.53
2017-04-10T13:32:04.757Z,14.58
2017-04-10T13:37:01.043Z,14.53
2017-04-10T13:41:57.940Z,14.29
2017-04-10T13:46:55.264Z,14.36
2017-04-10T13:51:51.463Z,14.54
2017-04-10T13:56:49.744Z,15.07
2017-04-10T14:01:46.329Z,15.06
2017-04-10T14:06:42.485Z,14.65
2017-04-10T14:11:39.851Z,15.04
2017-04-10T14:16:37.284Z,15.61
2017-04-10T14:21:34.731Z,15.15
2017-04-10T14:26:31.003Z,14.45
2017-04-10T14:31:27.102Z,14.41
2017-04-10T14:36:24.143Z,14.70
2017-04-10T14:41:21.357Z,14.73
2017-04-10T14:46:18.976Z,14.86
2017-04-10T14:51:15.834Z,14.84
2017-04-10T14:56:12.216Z,14.65
2017-04-10T15:01:10.391Z,14.77
2017-04-10T15:06:07.135Z,14.44
2017-04-10T15:11:02.809Z,14.00
2017-04-10T15:15:58.489Z,13.65
2017-04-10T15:20:55.014Z,13.65
2017-04-10T15:25:51.579Z,13.68
2017-04-10T15:30:48.419Z,13.79
2017-04-10T15:35:44.744Z,13.57
2017-04-10T15:40:41.466Z,13.67
2017-04-10T15:45:37.799Z,13.57
2017-04-10T15:50:34.339Z,13.71
2017-04-10T15:55:30.982Z,13.65
2017-04-10T16:00:28.458Z,13.71
2017-04-10T16:05:24.938Z,13.56
2017-04-10T16:10:21.063Z,13.54
2017-04-10T16:15:17.443Z,13.49
2017-04-10T16:20:14.242Z,13.30
2017-04-10T16:25:10.781Z,13.30
2017-04-10T16:30:14.379Z,13.28
2017-04-10T16:35:10.421Z,13.01
2017-04-10T16:40:06.822Z,13.15
2017-04-10T16:45:03.224Z,13.16
2017-04-10T16:50:00.064Z,13.09
2017-04-10T16:54:56.279Z,12.91
2017-04-10T16:59:52.621Z,12.70
2017-04-10T17:04:49.577Z,12.68
2017-04-10T17:09:45.978Z,12.70
2017-04-10T17:14:43.835Z,12.58
2017-04-10T17:19:47.955Z,12.60
2017-04-10T17:24:43.257Z,12.49
2017-04-10T17:29:39.908Z,12.54
2017-04-10T17:34:36.638Z,12.37
2017-04-10T17:44:37.552Z,12.32
2017-04-10T17:49:34.055Z,12.09
2017-04-10T17:54:30.638Z,11.95
2017-04-10T17:59:27.118Z,11.86
2017-04-10T18:04:24.623Z,11.94
2017-04-10T18:09:20.962Z,11.84
2017-04-10T18:14:17.527Z,11.78
2017-04-10T18:19:14.344Z,11.70
2017-04-10T18:24:10.715Z,11.59
2017-04-10T18:29:07.066Z,11.47
2017-04-10T18:34:04.388Z,11.43
2017-04-10T18:39:00.559Z,11.32
2017-04-10T18:43:57.019Z,11.26
2017-04-10T18:48:53.824Z,11.19
2017-04-10T18:53:50.160Z,11.18
2017-04-10T18:58:47.251Z,11.10
2017-04-10T19:03:44.030Z,11.17
2017-04-10T19:08:40.512Z,11.15
2017-04-10T19:13:37.168Z,11.05
2017-04-10T19:18:33.467Z,11.05
2017-04-10T19:23:30.289Z,10.93
2017-04-10T19:28:26.670Z,10.86
2017-04-10T19:33:23.466Z,10.72
2017-04-10T19:38:19.686Z,10.56
2017-04-10T19:43:16.747Z,10.61
2017-04-10T19:48:13.155Z,10.60
2017-04-10T19:53:09.576Z,10.61
2017-04-10T19:58:06.013Z,10.51
2017-04-10T20:03:02.642Z,10.44
2017-04-10T20:07:59.135Z,10.57
2017-04-10T20:12:55.875Z,10.46
2017-04-10T20:17:52.321Z,10.42
2017-04-10T20:22:48.856Z,10.35
2017-04-10T20:27:45.154Z,10.37
2017-04-10T20:32:41.837Z,10.26
2017-04-10T20:37:38.679Z,10.25
2017-04-10T20:42:34.799Z,10.22
2017-04-10T20:47:31.169Z,10.02
2017-04-10T20:52:28.113Z,9.94
2017-04-10T20:57:24.101Z,9.95
2017-04-10T21:02:20.568Z,9.87
2017-04-10T21:07:17.099Z,9.94
2017-04-10T21:12:13.648Z,9.92
2017-04-10T21:17:10.211Z,9.92
2017-04-10T21:22:06.815Z,9.83
2017-04-10T21:27:03.222Z,9.74
2017-04-10T21:31:59.443Z,9.65
2017-04-10T21:36:56.039Z,9.72
2017-04-10T21:41:52.889Z,9.55
2017-04-10T21:46:49.964Z,9.59
2017-04-10T21:51:46.098Z,9.51
2017-04-10T21:56:43.092Z,9.29
2017-04-10T22:01:40.029Z,9.26
2017-04-10T22:06:37.202Z,9.04
2017-04-10T22:11:37.861Z,9.10
2017-04-10T22:16:34.182Z,8.99
2017-04-10T22:21:30.605Z,9.08
2017-04-10T22:26:27.051Z,8.97
2017-04-10T22:31:24.327Z,9.03
2017-04-10T22:36:20.369Z,8.88
2017-04-10T22:41:17.638Z,8.82
2017-04-10T22:46:14.528Z,8.91
2017-04-10T22:51:10.929Z,8.85
2017-04-10T22:56:07.429Z,8.69
2017-04-10T23:01:04.735Z,8.71
2017-04-10T23:06:01.623Z,8.46
2017-04-10T23:10:57.775Z,8.63
2017-04-10T23:15:54.430Z,8.63
2017-04-10T23:20:50.806Z,8.49
2017-04-10T23:25:47.403Z,8.42
2017-04-10T23:30:43.870Z,8.58
2017-04-10T23:35:40.392Z,8.38
2017-04-10T23:40:36.550Z,8.24
2017-04-10T23:45:32.997Z,8.34
2017-04-10T23:50:29.508Z,8.36
2017-04-10T23:55:26.474Z,8.23
